createdAt,value
2019-01-25T00:01:38.317Z,97021.09
2019-01-25T00:04:45.009Z,97018.85
2019-01-25T00:07:51.892Z,97021.02
2019-01-25T00:10:59.262Z,97019.60
2019-01-25T00:14:06.501Z,97021.78
2019-01-25T00:17:13.342Z,97013.59
2019-01-25T00:20:20.068Z,97017.47
2019-01-25T00:23:26.798Z,97021.86
2019-01-25T00:26:33.451Z,97021.43
2019-01-25T00:29:41.972Z,97027.11
2019-01-25T00:32:49.475Z,97029.24
2019-01-25T00:35:56.031Z,97032.18
2019-01-25T00:39:04.487Z,97036.42
2019-01-25T00:42:11.223Z,97034.23
2019-01-25T00:45:18.284Z,97029.47
2019-01-25T00:48:25.165Z,97037.36
2019-01-25T00:51:36.447Z,97036.06
2019-01-25T00:54:43.463Z,97032.58
2019-01-25T00:57:50.172Z,97034.00
2019-01-25T01:00:56.711Z,97037.41
2019-01-25T01:04:03.382Z,97041.38
2019-01-25T01:07:10.199Z,97035.37
2019-01-25T01:10:17.210Z,97042.77
2019-01-25T01:13:24.080Z,97037.98
2019-01-25T01:16:31.711Z,97046.23
2019-01-25T01:19:38.386Z,97052.31
2019-01-25T01:22:45.757Z,97053.58
2019-01-25T01:25:52.567Z,97068.30
2019-01-25T01:28:59.515Z,97054.11
2019-01-25T01:32:06.230Z,97060.20
2019-01-25T01:35:13.638Z,97062.47
2019-01-25T01:38:20.754Z,97064.80
2019-01-25T01:41:27.316Z,97075.44
2019-01-25T01:44:34.527Z,97072.03
2019-01-25T01:47:41.086Z,97077.00
2019-01-25T01:50:48.477Z,97077.00
2019-01-25T01:53:55.321Z,97081.95
2019-01-25T01:57:01.924Z,97082.48
2019-01-25T02:00:13.315Z,97083.84
2019-01-25T02:03:19.872Z,97086.42
2019-01-25T02:06:26.880Z,97083.83
2019-01-25T02:09:33.262Z,97087.81
2019-01-25T02:12:41.082Z,97086.89
2019-01-25T02:15:48.037Z,97087.04
2019-01-25T02:18:54.840Z,97087.58
2019-01-25T02:22:01.267Z,97082.53
2019-01-25T02:25:07.913Z,97073.09
2019-01-25T02:28:14.730Z,97073.72
2019-01-25T02:31:21.415Z,97078.11
2019-01-25T02:34:27.777Z,97075.84
2019-01-25T02:37:34.790Z,97075.46
2019-01-25T02:40:41.519Z,97073.78
2019-01-25T02:43:48.075Z,97070.00
2019-01-25T02:46:54.812Z,97068.03
2019-01-25T02:50:01.409Z,97071.20
2019-01-25T02:53:07.816Z,97072.54
2019-01-25T02:56:14.699Z,97073.52
2019-01-25T02:59:21.539Z,97074.94
2019-01-25T03:02:28.441Z,97062.48
2019-01-25T03:05:35.082Z,97069.20
2019-01-25T03:08:41.665Z,97064.98
2019-01-25T03:11:48.418Z,97067.63
2019-01-25T03:14:54.989Z,97068.77
2019-01-25T03:18:01.534Z,97073.31
2019-01-25T03:21:10.025Z,97070.73
2019-01-25T03:24:16.668Z,97063.91
2019-01-25T03:27:23.797Z,97068.67
2019-01-25T03:30:31.424Z,97065.98
2019-01-25T03:33:38.402Z,97071.70
2019-01-25T03:36:45.057Z,97075.13
2019-01-25T03:39:51.651Z,97071.12
2019-01-25T03:42:58.340Z,97075.77
2019-01-25T03:46:04.983Z,97076.81
2019-01-25T03:49:12.422Z,97075.28
2019-01-25T03:52:19.067Z,97074.74
2019-01-25T03:55:25.961Z,97087.24
2019-01-25T03:58:32.625Z,97078.86
2019-01-25T04:01:39.775Z,97087.50
2019-01-25T04:04:46.742Z,97087.11
2019-01-25T04:07:53.434Z,97094.01
2019-01-25T04:11:03.923Z,97090.55
2019-01-25T04:14:08.374Z,97094.41
2019-01-25T04:17:14.739Z,97094.58
2019-01-25T04:20:21.516Z,97098.34
2019-01-25T04:23:28.470Z,97096.20
2019-01-25T04:26:35.223Z,97104.90
2019-01-25T04:29:41.977Z,97100.72
2019-01-25T04:32:48.784Z,97095.58
2019-01-25T04:35:55.183Z,97107.09
2019-01-25T04:39:01.997Z,97105.09
2019-01-25T04:42:09.859Z,97105.16
2019-01-25T04:45:17.993Z,97105.09
2019-01-25T04:48:24.846Z,97115.03
2019-01-25T04:51:31.491Z,97110.45
2019-01-25T04:54:38.240Z,97108.98
2019-01-25T04:57:44.667Z,97114.75
2019-01-25T05:00:51.203Z,97111.03
2019-01-25T05:03:57.924Z,97114.97
2019-01-25T05:07:05.483Z,97118.83
2019-01-25T05:10:12.387Z,97110.58
2019-01-25T05:13:19.715Z,97110.86
2019-01-25T05:16:26.176Z,97109.66
2019-01-25T05:19:39.183Z,97104.92
2019-01-25T05:22:45.923Z,97112.77
2019-01-25T05:25:52.750Z,97109.64
2019-01-25T05:28:59.619Z,97114.66
2019-01-25T05:32:07.150Z,97125.00
2019-01-25T05:35:14.156Z,97126.67
2019-01-25T05:38:20.932Z,97122.54
2019-01-25T05:41:28.760Z,97115.92
2019-01-25T05:44:35.413Z,97117.30
2019-01-25T05:47:42.147Z,97125.03
2019-01-25T05:50:48.942Z,97125.03
2019-01-25T05:53:55.513Z,97130.00
2019-01-25T05:57:02.152Z,97129.30
2019-01-25T06:00:13.488Z,97137.05
2019-01-25T06:03:19.793Z,97135.64
2019-01-25T06:06:26.074Z,97150.33
2019-01-25T06:09:34.778Z,97149.70
2019-01-25T06:12:45.827Z,97151.48
2019-01-25T06:15:52.959Z,97146.40
2019-01-25T06:18:59.679Z,97143.44
2019-01-25T06:22:06.928Z,97145.95
2019-01-25T06:25:13.916Z,97148.73
2019-01-25T06:28:20.428Z,97157.20
2019-01-25T06:31:27.291Z,97159.34
2019-01-25T06:34:33.663Z,97166.79
2019-01-25T06:37:40.539Z,97170.08
2019-01-25T06:40:47.277Z,97167.17
2019-01-25T06:43:53.947Z,97170.80
2019-01-25T06:47:00.643Z,97175.07
2019-01-25T06:50:07.397Z,97173.02
2019-01-25T06:53:14.269Z,97174.31
2019-01-25T06:56:21.241Z,97176.53
2019-01-25T06:59:35.285Z,97174.06
2019-01-25T07:02:42.863Z,97168.75
2019-01-25T07:05:50.029Z,97173.72
2019-01-25T07:08:56.849Z,97177.19
2019-01-25T07:12:03.331Z,97180.59
2019-01-25T07:15:11.120Z,97173.53
2019-01-25T07:18:18.063Z,97179.63
2019-01-25T07:21:24.854Z,97177.38
2019-01-25T07:24:32.100Z,97181.76
2019-01-25T07:27:39.385Z,97189.17
2019-01-25T07:30:46.405Z,97196.52
2019-01-25T07:33:53.149Z,97190.23
2019-01-25T07:36:59.677Z,97190.01
2019-01-25T07:40:06.811Z,97190.83
2019-01-25T07:43:13.869Z,97191.73
2019-01-25T07:46:21.020Z,97184.67
2019-01-25T07:49:27.540Z,97192.98
2019-01-25T07:52:34.357Z,97183.94
2019-01-25T07:55:41.057Z,97189.81
2019-01-25T07:58:48.077Z,97192.06
2019-01-25T08:01:56.069Z,97198.77
2019-01-25T08:05:03.115Z,97195.61
2019-01-25T08:08:09.909Z,97203.68
2019-01-25T08:11:16.514Z,97202.56
2019-01-25T08:14:23.353Z,97196.48
2019-01-25T08:17:32.065Z,97190.81
2019-01-25T08:20:38.580Z,97204.36
2019-01-25T08:23:45.405Z,97207.52
2019-01-25T08:26:51.803Z,97209.90
2019-01-25T08:29:58.507Z,97209.21
2019-01-25T08:33:05.532Z,97221.03
2019-01-25T08:36:12.462Z,97219.09
2019-01-25T08:39:19.154Z,97217.58
2019-01-25T08:42:25.860Z,97221.70
2019-01-25T08:45:32.887Z,97220.27
2019-01-25T08:48:39.565Z,97231.31
2019-01-25T08:51:46.795Z,97234.25
2019-01-25T08:54:53.172Z,97233.43
2019-01-25T08:58:00.111Z,97222.48
2019-01-25T09:01:08.290Z,97220.98
2019-01-25T09:04:14.643Z,97224.94
2019-01-25T09:07:21.503Z,97218.75
2019-01-25T09:10:28.206Z,97217.48
2019-01-25T09:13:35.327Z,97217.45
2019-01-25T09:16:42.495Z,97211.84
2019-01-25T09:19:48.874Z,97202.95
2019-01-25T09:22:55.831Z,97207.43
2019-01-25T09:26:03.134Z,97211.06
2019-01-25T09:29:09.664Z,97206.95
2019-01-25T09:32:16.983Z,97219.86
2019-01-25T09:35:24.735Z,97224.16
2019-01-25T09:38:31.564Z,97221.42
2019-01-25T09:41:39.562Z,97227.02
2019-01-25T09:44:46.361Z,97228.31
2019-01-25T09:47:53.606Z,97224.83
2019-01-25T09:51:00.642Z,97228.38
2019-01-25T09:54:08.154Z,97236.30
2019-01-25T09:57:15.013Z,97240.11
2019-01-25T10:00:33.740Z,97244.72
2019-01-25T10:03:41.137Z,97241.98
2019-01-25T10:06:47.866Z,97248.38
2019-01-25T10:09:54.694Z,97240.66
2019-01-25T10:13:01.282Z,97245.62
2019-01-25T10:16:08.267Z,97238.70
2019-01-25T10:19:14.963Z,97235.58
2019-01-25T10:22:21.537Z,97224.59
2019-01-25T10:25:29.737Z,97230.38
2019-01-25T10:28:36.860Z,97223.53
2019-01-25T10:31:43.901Z,97216.22
2019-01-25T10:34:50.407Z,97217.61
2019-01-25T10:37:57.698Z,97208.30
2019-01-25T10:41:04.438Z,97211.07
2019-01-25T10:44:10.807Z,97213.69
2019-01-25T10:47:17.753Z,97218.75
2019-01-25T10:50:25.420Z,97220.68
2019-01-25T10:53:32.278Z,97213.91
2019-01-25T10:56:41.912Z,97214.72
2019-01-25T10:59:48.067Z,97214.95
2019-01-25T11:02:58.403Z,97198.31
2019-01-25T11:06:03.090Z,97194.66
2019-01-25T11:09:10.402Z,97191.72
2019-01-25T11:12:17.708Z,97190.84
2019-01-25T11:15:24.410Z,97187.66
2019-01-25T11:18:30.780Z,97198.91
2019-01-25T11:21:39.045Z,97187.81
2019-01-25T11:24:45.470Z,97187.87
2019-01-25T11:27:51.859Z,97188.09
2019-01-25T11:30:58.789Z,97189.06
2019-01-25T11:34:05.456Z,97195.26
2019-01-25T11:37:13.340Z,97185.64
2019-01-25T11:40:22.680Z,97189.06
2019-01-25T11:43:29.606Z,97194.33
2019-01-25T11:46:37.140Z,97184.74
2019-01-25T11:49:45.026Z,97189.45
2019-01-25T11:52:51.666Z,97189.00
2019-01-25T11:55:58.258Z,97188.09
2019-01-25T11:59:05.171Z,97179.28
2019-01-25T12:02:13.415Z,97176.39
2019-01-25T12:05:21.229Z,97168.75
2019-01-25T12:08:27.923Z,97165.73
2019-01-25T12:11:34.936Z,97160.77
2019-01-25T12:14:42.524Z,97159.57
2019-01-25T12:17:49.132Z,97170.59
2019-01-25T12:20:56.613Z,97174.80
2019-01-25T12:24:03.543Z,97169.60
2019-01-25T12:27:10.280Z,97172.74
2019-01-25T12:30:20.618Z,97165.19
2019-01-25T12:33:28.081Z,97162.17
2019-01-25T12:36:35.451Z,97167.42
2019-01-25T12:39:42.567Z,97171.31
2019-01-25T12:42:49.074Z,97170.41
2019-01-25T12:45:55.676Z,97168.32
2019-01-25T12:49:02.151Z,97171.88
2019-01-25T12:52:10.824Z,97169.94
2019-01-25T12:55:17.521Z,97168.55
2019-01-25T12:58:24.536Z,97163.54
2019-01-25T13:01:34.989Z,97160.49
2019-01-25T13:04:39.901Z,97150.55
2019-01-25T13:07:47.130Z,97151.29
2019-01-25T13:10:53.722Z,97150.82
2019-01-25T13:14:00.766Z,97149.33
2019-01-25T13:17:07.303Z,97152.06
2019-01-25T13:20:17.690Z,97152.66
2019-01-25T13:23:24.522Z,97148.45
2019-01-25T13:26:31.215Z,97143.56
2019-01-25T13:29:38.348Z,97141.84
2019-01-25T13:32:45.030Z,97139.24
2019-01-25T13:35:52.142Z,97140.34
2019-01-25T13:38:59.094Z,97129.53
2019-01-25T13:42:06.249Z,97129.23
2019-01-25T13:45:15.129Z,97124.33
2019-01-25T13:48:22.238Z,97125.50
2019-01-25T13:51:31.305Z,97118.28
2019-01-25T13:54:38.314Z,97124.36
2019-01-25T13:57:45.380Z,97125.27
2019-01-25T14:00:52.201Z,97125.05
2019-01-25T14:03:58.691Z,97115.55
2019-01-25T14:07:04.917Z,97121.51
2019-01-25T14:10:14.300Z,97121.63
2019-01-25T14:13:23.359Z,97119.16
2019-01-25T14:16:31.268Z,97125.30
2019-01-25T14:19:38.221Z,97132.03
2019-01-25T14:22:45.135Z,97134.08
2019-01-25T14:25:51.994Z,97129.30
2019-01-25T14:28:58.808Z,97140.52
2019-01-25T14:32:05.649Z,97138.19
2019-01-25T14:35:12.640Z,97145.47
2019-01-25T14:38:19.704Z,97150.58
2019-01-25T14:41:27.316Z,97155.91
2019-01-25T14:44:34.025Z,97154.88
2019-01-25T14:47:41.026Z,97154.52
2019-01-25T14:50:47.654Z,97148.34
2019-01-25T14:53:54.514Z,97147.21
2019-01-25T14:57:01.334Z,97137.94
2019-01-25T15:00:09.104Z,97137.01
2019-01-25T15:03:17.294Z,97131.89
2019-01-25T15:06:23.840Z,97121.47
2019-01-25T15:09:31.085Z,97121.91
2019-01-25T15:12:39.032Z,97123.34
2019-01-25T15:15:45.873Z,97109.84
2019-01-25T15:18:52.473Z,97118.06
2019-01-25T15:21:59.971Z,97115.19
2019-01-25T15:25:07.526Z,97125.81
2019-01-25T15:28:14.442Z,97126.61
2019-01-25T15:31:21.844Z,97125.63
2019-01-25T15:34:28.723Z,97130.63
2019-01-25T15:37:35.787Z,97132.20
2019-01-25T15:40:42.516Z,97128.56
2019-01-25T15:43:49.643Z,97127.67
2019-01-25T15:46:57.034Z,97125.62
2019-01-25T15:50:05.788Z,97120.59
2019-01-25T15:53:13.363Z,97116.09
2019-01-25T15:56:21.101Z,97120.95
2019-01-25T15:59:27.981Z,97127.53
2019-01-25T16:02:35.157Z,97127.68
2019-01-25T16:05:41.932Z,97128.66
2019-01-25T16:08:48.571Z,97136.88
2019-01-25T16:11:55.055Z,97138.48
2019-01-25T16:15:01.535Z,97135.53
2019-01-25T16:18:08.200Z,97134.92
2019-01-25T16:21:14.994Z,97134.09
2019-01-25T16:24:22.243Z,97137.22
2019-01-25T16:27:30.340Z,97138.59
2019-01-25T16:30:39.116Z,97148.42
2019-01-25T16:33:46.625Z,97149.75
2019-01-25T16:36:55.076Z,97142.94
2019-01-25T16:40:01.904Z,97151.91
2019-01-25T16:43:10.998Z,97158.36
2019-01-25T16:46:17.957Z,97153.25
2019-01-25T16:49:24.851Z,97145.52
2019-01-25T16:52:31.740Z,97143.64
2019-01-25T16:55:38.536Z,97148.56
2019-01-25T16:58:45.476Z,97145.60
2019-01-25T17:01:53.439Z,97140.13
2019-01-25T17:05:00.744Z,97135.48
2019-01-25T17:08:09.271Z,97135.98
2019-01-25T17:11:16.585Z,97132.22
2019-01-25T17:14:23.985Z,97129.48
2019-01-25T17:17:31.028Z,97129.98
2019-01-25T17:20:38.528Z,97128.08
2019-01-25T17:23:45.279Z,97126.89
2019-01-25T17:26:52.019Z,97121.77
2019-01-25T17:29:58.703Z,97118.13
2019-01-25T17:33:05.912Z,97121.95
2019-01-25T17:36:13.731Z,97117.90
2019-01-25T17:39:22.173Z,97119.86
2019-01-25T17:42:28.910Z,97123.39
2019-01-25T17:45:36.059Z,97106.13
2019-01-25T17:48:43.503Z,97107.09
2019-01-25T17:51:51.738Z,97096.66
2019-01-25T17:54:59.703Z,97106.28
2019-01-25T17:58:08.276Z,97105.95
2019-01-25T18:01:15.840Z,97102.19
2019-01-25T18:04:23.233Z,97102.49
2019-01-25T18:07:31.554Z,97093.44
2019-01-25T18:10:38.898Z,97094.55
2019-01-25T18:13:47.606Z,97093.80
2019-01-25T18:16:55.565Z,97084.55
2019-01-25T18:20:03.010Z,97079.31
2019-01-25T18:23:09.719Z,97069.27
2019-01-25T18:26:22.611Z,97058.48
2019-01-25T18:29:51.441Z,97057.20
2019-01-25T18:32:59.751Z,97053.64
2019-01-25T18:36:06.949Z,97063.16
2019-01-25T18:39:15.366Z,97054.35
2019-01-25T18:42:24.510Z,97059.88
2019-01-25T18:45:31.512Z,97048.68
2019-01-25T18:48:38.956Z,97027.80
2019-01-25T18:51:46.362Z,97032.84
2019-01-25T18:54:52.881Z,97033.78
2019-01-25T18:57:59.645Z,97036.67
2019-01-25T19:01:06.385Z,97030.13
2019-01-25T19:04:12.970Z,97038.81
2019-01-25T19:07:19.693Z,97042.23
2019-01-25T19:10:27.145Z,97030.19
2019-01-25T19:13:34.405Z,97014.16
2019-01-25T19:16:42.074Z,97014.65
2019-01-25T19:19:49.489Z,97014.58
2019-01-25T19:22:56.184Z,97019.20
2019-01-25T19:26:02.862Z,97022.07
2019-01-25T19:29:10.194Z,97018.88
2019-01-25T19:32:16.649Z,97024.41
2019-01-25T19:35:24.406Z,97025.05
2019-01-25T19:38:31.267Z,97033.73
2019-01-25T19:41:40.831Z,97033.83
2019-01-25T19:44:48.219Z,97023.75
2019-01-25T19:47:55.439Z,97022.66
2019-01-25T19:51:02.528Z,97007.46
2019-01-25T19:54:09.319Z,96999.30
2019-01-25T19:57:15.878Z,96996.48
2019-01-25T20:00:28.614Z,97000.41
2019-01-25T20:03:35.351Z,97003.59
2019-01-25T20:06:42.279Z,97012.38
2019-01-25T20:09:49.667Z,97015.59
2019-01-25T20:12:57.966Z,97012.20
2019-01-25T20:16:06.672Z,97008.26
2019-01-25T20:19:13.781Z,97019.13
2019-01-25T20:22:20.475Z,97019.13
2019-01-25T20:25:29.478Z,97009.67
2019-01-25T20:28:37.902Z,97003.08
2019-01-25T20:31:45.874Z,96991.86
2019-01-25T20:34:52.491Z,96986.72
2019-01-25T20:38:01.744Z,96987.97
2019-01-25T20:41:09.455Z,96985.53
2019-01-25T20:44:16.300Z,96981.53
2019-01-25T20:47:23.059Z,96965.94
2019-01-25T20:50:31.756Z,96950.49
2019-01-25T20:53:38.407Z,96946.60
2019-01-25T20:56:45.229Z,96941.00
2019-01-25T20:59:51.973Z,96934.14
2019-01-25T21:02:58.708Z,96920.82
2019-01-25T21:06:05.651Z,96919.06
2019-01-25T21:09:13.086Z,96912.01
2019-01-25T21:12:20.262Z,96903.19
2019-01-25T21:15:34.813Z,96904.20
2019-01-25T21:18:36.262Z,96897.64
2019-01-25T21:21:43.688Z,96888.66
2019-01-25T21:24:50.922Z,96868.99
2019-01-25T21:27:57.777Z,96857.27
2019-01-25T21:31:04.130Z,96865.36
2019-01-25T21:34:11.286Z,96869.53
2019-01-25T21:37:18.247Z,96865.81
2019-01-25T21:40:27.031Z,96853.68
2019-01-25T21:43:33.523Z,96846.95
2019-01-25T21:46:40.908Z,96842.55
2019-01-25T21:49:48.042Z,96834.62
2019-01-25T21:52:54.590Z,96824.38
2019-01-25T21:56:01.066Z,96815.41
2019-01-25T21:59:08.373Z,96804.33
2019-01-25T22:02:14.925Z,96803.86
2019-01-25T22:05:22.254Z,96801.59
2019-01-25T22:08:29.297Z,96788.35
2019-01-25T22:11:37.568Z,96789.31
2019-01-25T22:14:45.378Z,96777.32
2019-01-25T22:17:52.534Z,96761.69
2019-01-25T22:20:59.249Z,96759.28
2019-01-25T22:24:06.551Z,96760.75
2019-01-25T22:27:15.225Z,96756.95
2019-01-25T22:30:23.171Z,96757.88
2019-01-25T22:33:29.848Z,96758.01
2019-01-25T22:36:40.420Z,96744.48
2019-01-25T22:39:48.449Z,96751.33
2019-01-25T22:42:55.965Z,96749.57
2019-01-25T22:46:02.858Z,96738.21
2019-01-25T22:49:10.234Z,96748.66
2019-01-25T22:52:16.847Z,96730.34
2019-01-25T22:55:30.114Z,96726.53
2019-01-25T22:58:36.915Z,96725.60
2019-01-25T23:01:44.013Z,96706.49
2019-01-25T23:05:25.137Z,96713.64
2019-01-25T23:08:31.768Z,96706.21
2019-01-25T23:11:39.216Z,96692.48
2019-01-25T23:14:46.221Z,96689.34
2019-01-25T23:17:52.739Z,96683.91
2019-01-25T23:20:59.547Z,96673.61
2019-01-25T23:24:06.333Z,96675.52
2019-01-25T23:27:14.184Z,96659.05
2019-01-25T23:30:20.675Z,96670.42
2019-01-25T23:33:28.145Z,96649.03
2019-01-25T23:36:36.186Z,96652.70
2019-01-25T23:39:42.492Z,96644.39
2019-01-25T23:42:49.027Z,96648.34
2019-01-25T23:45:55.838Z,96647.68
2019-01-25T23:49:02.423Z,96636.22
2019-01-25T23:52:09.325Z,96632.47
2019-01-25T23:55:16.204Z,96628.23
2019-01-25T23:58:23.534Z,96634.72
